createdAt,value
2023-04-21T00:01:16.394Z,12.760212256772501
2023-04-21T00:04:17.851Z,12.750577837776017
2023-04-21T00:07:16.195Z,12.70561722932116
2023-04-21T00:11:16.435Z,12.645241590162277
2023-04-21T00:14:16.190Z,12.631753420947643
2023-04-21T00:17:16.266Z,12.598354153428227
2023-04-21T00:21:17.869Z,12.539905464857384
2023-04-21T00:24:16.500Z,12.507148523992873
2023-04-21T00:27:16.574Z,12.46026115863142
2023-04-21T00:31:16.393Z,12.457049696137256
2023-04-21T00:34:16.716Z,12.39153588607187
2023-04-21T00:37:17.025Z,12.35299837284001
2023-04-21T00:41:16.167Z,12.295834425031444
2023-04-21T00:44:16.434Z,12.304184212914333
2023-04-21T00:47:16.395Z,12.252800915053012
2023-04-21T00:51:16.209Z,12.180864346941599
2023-04-21T00:54:17.561Z,12.16416479464533
2023-04-21T00:57:16.441Z,12.12562737800181
2023-04-21T01:01:15.515Z,12.029283908015714
2023-04-21T01:04:16.143Z,12.040845119011646
2023-04-21T01:07:15.984Z,12.01065751562137
2023-04-21T01:11:16.252Z,11.946428605661731
2023-04-21T01:14:16.441Z,11.940005717166878
2023-04-21T01:17:19.170Z,11.892476356438511
2023-04-21T01:21:15.982Z,11.830174394279311
2023-04-21T01:24:16.029Z,11.826962954090504
2023-04-21T01:27:18.132Z,11.821182362037144
2023-04-21T01:31:16.930Z,11.806409739574246
2023-04-21T01:34:16.419Z,11.772368488274878
2023-04-21T01:37:18.568Z,11.754384436141482
2023-04-21T01:41:17.309Z,11.735115812812001
2023-04-21T01:44:15.884Z,11.716489480817199
2023-04-21T01:47:16.655Z,11.667675663389037
2023-04-21T01:51:15.845Z,11.6413419043678
2023-04-21T01:54:16.331Z,11.607943001483
2023-04-21T01:57:17.044Z,11.604089282710628
2023-04-21T02:01:16.261Z,11.553990953567336
2023-04-21T02:04:17.188Z,11.548852664963125
2023-04-21T02:07:16.682Z,11.533437800896717
2023-04-21T02:11:15.629Z,11.522518940434475
2023-04-21T02:14:16.208Z,11.482697225179527
2023-04-21T02:17:17.429Z,11.445444668669461
2023-04-21T02:21:16.109Z,11.405622987247716
2023-04-21T02:24:16.699Z,11.370297316747019
2023-04-21T02:27:16.497Z,11.366443608070039
2023-04-21T02:31:16.226Z,11.305426575834371
2023-04-21T02:34:16.264Z,11.248263288132511
2023-04-21T02:37:16.151Z,11.25147470783495
2023-04-21T02:41:16.128Z,11.223856502109266
2023-04-21T02:44:16.712Z,11.178896650308525
2023-04-21T02:47:16.783Z,11.182108067555328
2023-04-21T02:51:15.537Z,11.11595289522229
2023-04-21T02:54:15.921Z,11.091546144796666
2023-04-21T02:57:16.018Z,11.088334730755832
2023-04-21T03:01:15.647Z,11.058147444329006
2023-04-21T03:04:15.974Z,11.058789726914346
2023-04-21T03:07:16.782Z,11.018968215222504
2023-04-21T03:11:16.287Z,10.967585645320742
2023-04-21T03:14:16.881Z,10.946390343715029
2023-04-21T03:17:16.605Z,10.955382289245971
2023-04-21T03:21:15.701Z,10.912991696689279
2023-04-21T03:24:16.522Z,10.87830849933125
2023-04-21T03:27:15.856Z,10.853259531708408
2023-04-21T03:31:15.699Z,10.838487066865492
2023-04-21T03:34:16.471Z,10.823714604428186
2023-04-21T03:37:16.174Z,10.808299863580123
2023-04-21T03:41:15.981Z,10.771689864563815
2023-04-21T03:44:16.653Z,10.758844254375436
2023-04-21T03:47:16.510Z,10.717096033825602
2023-04-21T03:51:15.814Z,10.72480339617332
2023-04-21T03:54:16.159Z,10.742144963849933
2023-04-21T03:57:16.563Z,10.679843791709663
2023-04-21T04:01:16.101Z,10.66314451572698
2023-04-21T04:04:16.661Z,10.68690887093544
2023-04-21T04:07:17.667Z,10.654794878888424
2023-04-21T04:11:16.248Z,10.628461413893183
2023-04-21T04:14:16.784Z,10.641307005618819
2023-04-21T04:17:16.467Z,10.662502235942885
2023-04-21T04:21:16.545Z,10.604697073996068
2023-04-21T04:24:16.491Z,10.5224853515625
2023-04-21T04:27:16.819Z,10.523769909152543
2023-04-21T04:31:17.339Z,10.557168412878308
2023-04-21T04:34:16.993Z,10.492940532011925
2023-04-21T04:37:16.661Z,10.51092433407066
2023-04-21T04:41:17.214Z,10.483306353804164
2023-04-21T04:44:18.087Z,10.503216989894645
2023-04-21T04:47:16.556Z,10.467891670799963
2023-04-21T04:51:17.078Z,10.442200538280394
2023-04-21T04:54:17.225Z,10.455046103630684
2023-04-21T04:57:17.042Z,10.474956733518411
2023-04-21T05:01:17.035Z,10.442842816504708
2023-04-21T05:04:17.759Z,10.44027370363474
2023-04-21T05:07:16.071Z,10.414582578936825
2023-04-21T05:11:15.764Z,10.413298022892922
2023-04-21T05:14:16.073Z,10.415224856965597
2023-04-21T05:17:15.939Z,10.374761350034168
2023-04-21T05:21:22.649Z,10.393387406538476
2023-04-21T05:24:17.047Z,10.389533739361742
2023-04-21T05:27:17.015Z,10.38375323890359
2023-04-21T05:31:15.648Z,10.389533739361742
2023-04-21T05:34:16.022Z,10.41843624717767
2023-04-21T05:37:16.143Z,10.447338764202232
2023-04-21T05:41:16.378Z,10.44091598184541
2023-04-21T05:44:16.478Z,10.468533949206176
2023-04-21T05:47:16.095Z,10.465964835608611
2023-04-21T05:51:16.208Z,10.528908139694613
2023-04-21T05:54:17.144Z,10.53982688056285
2023-04-21T05:57:16.885Z,10.544322833067053
2023-04-21T06:01:16.078Z,10.591209208175224
2023-04-21T06:04:16.703Z,10.603412515260061
2023-04-21T06:07:18.945Z,10.649014361527316
2023-04-21T06:11:16.363Z,10.708104111914235
2023-04-21T06:14:16.489Z,10.726087956628271
2023-04-21T06:17:16.959Z,10.728657077592743
2023-04-21T06:21:15.945Z,10.835917942790548
2023-04-21T06:24:16.404Z,10.838487066865492
2023-04-21T06:27:16.789Z,10.886658156742579
2023-04-21T06:31:16.114Z,10.978504438989694
2023-04-21T06:34:16.391Z,11.010618545633042
2023-04-21T06:37:17.092Z,11.068423966240152
2023-04-21T06:41:16.792Z,11.142286501730359
2023-04-21T06:44:16.380Z,11.209083976916826
2023-04-21T06:47:16.881Z,11.290654037358763
2023-04-21T06:51:16.516Z,11.358093906498198
2023-04-21T06:54:17.023Z,11.413330408094135
2023-04-21T06:57:17.619Z,11.479485797291636
2023-04-21T07:01:15.961Z,11.554633239663326
2023-04-21T07:04:16.639Z,11.644553337985508
2023-04-21T07:07:16.309Z,11.685659698332984
2023-04-21T07:11:16.213Z,11.768514762517588
2023-04-21T07:14:16.542Z,11.846873885093737
2023-04-21T07:17:16.505Z,11.916883322350714
2023-04-21T07:21:16.104Z,12.023503303070266
2023-04-21T07:24:16.312Z,12.09929348604428
2023-04-21T07:27:16.457Z,12.17765289433819
2023-04-21T07:31:16.194Z,12.247020295864877
2023-04-21T07:34:16.515Z,12.33372962236317
2023-04-21T07:37:17.356Z,12.401812559031896
2023-04-21T07:41:16.352Z,12.500083303004157
2023-04-21T07:44:16.920Z,12.595142686045529
2023-04-21T07:47:16.822Z,12.666437288694215
2023-04-21T07:51:18.128Z,12.76149684604934
2023-04-21T07:54:16.784Z,12.887386683418663
2023-04-21T08:01:16.173Z,13.07044109537028
2023-04-21T08:04:16.648Z,13.168070266108497
2023-04-21T08:07:16.797Z,13.265699541911545
2023-04-21T08:11:15.964Z,13.383240190986907
2023-04-21T08:14:16.430Z,13.497569493023912
2023-04-21T08:17:16.617Z,13.604191331504627
2023-04-21T08:21:16.734Z,13.703747980565186
2023-04-21T08:24:16.760Z,13.79045869940892
2023-04-21T08:27:16.887Z,13.879096408776604
2023-04-21T08:31:16.919Z,14.035818367704996
2023-04-21T08:34:16.219Z,14.100048756957767
2023-04-21T08:37:16.032Z,14.177125284087742
2023-04-21T08:41:16.129Z,14.250990350701704
2023-04-21T08:44:16.463Z,14.321643948955261
2023-04-21T08:47:17.130Z,14.398078358118436
2023-04-21T08:51:22.132Z,14.526539695053724
2023-04-21T08:54:16.205Z,14.595266585004083
2023-04-21T08:57:16.399Z,14.694824321661144
2023-04-21T09:11:16.205Z,15.121960367187512
2023-04-21T09:14:19.504Z,15.199680074424032
2023-04-21T09:17:20.015Z,15.291530723359847
2023-04-21T09:21:17.760Z,15.379527586134282
2023-04-21T09:24:16.775Z,15.484867008557558
2023-04-21T09:27:17.003Z,15.57671794622156
2023-04-21T09:31:18.176Z,15.725735049897139
2023-04-21T09:34:19.347Z,15.828505608833893
2023-04-21T09:37:18.741Z,15.960180557603962
2023-04-21T09:41:16.781Z,16.11112524617647
2023-04-21T09:44:18.483Z,16.26592410252524
2023-04-21T09:47:16.060Z,16.436138917503648
2023-04-21T09:54:29.190Z,16.771430921091177
2023-04-21T09:57:24.004Z,16.948712251360213
2023-04-21T10:01:16.466Z,17.203715352036305
2023-04-21T10:04:18.796Z,17.391917092569294
2023-04-21T10:07:16.388Z,17.590396484210213
2023-04-21T10:11:17.102Z,17.828700793423288
2023-04-21T10:14:16.723Z,18.0419547760147
2023-04-21T10:17:17.946Z,18.237223922579233
2023-04-21T10:21:19.193Z,18.455617544883808
2023-04-21T10:24:17.228Z,18.678508048504955
2023-04-21T10:27:56.814Z,18.85386609182615
2023-04-21T10:31:28.778Z,19.06969184117488
2023-04-21T10:34:20.819Z,19.234130851934697
2023-04-21T10:37:17.192Z,19.451884531838367
2023-04-21T10:41:26.578Z,19.672850452154307
2023-04-21T10:44:17.059Z,19.81095442562082
2023-04-21T10:47:24.476Z,19.943919845206256
2023-04-21T10:51:16.318Z,20.163602269694458
2023-04-21T10:54:17.213Z,20.333182048850357
2023-04-21T10:57:18.207Z,20.537449021829524
2023-04-21T11:01:16.513Z,20.744285859266892
2023-04-21T11:04:18.275Z,20.86825971764201
2023-04-21T11:07:18.337Z,21.009577275749415
2023-04-21T11:11:21.990Z,21.18301276151478
2023-04-21T11:14:16.956Z,21.33589320535257
2023-04-21T11:17:19.165Z,21.500336323244937
2023-04-21T11:21:18.838Z,21.64743608357967
2023-04-21T11:24:16.701Z,21.826654017777127
2023-04-21T11:27:17.869Z,21.998806345237334
2023-04-21T11:31:15.884Z,22.18894511634726
2023-04-21T11:34:20.016Z,22.32191402072531
2023-04-21T11:37:22.391Z,22.43561222393773
2023-04-21T11:41:20.857Z,22.578216951403828
2023-04-21T11:44:31.559Z,22.58913714247501
2023-04-21T11:47:19.595Z,22.725318459159826
2023-04-21T11:51:17.278Z,22.832593508195806
2023-04-21T11:54:17.951Z,22.91160455356003
2023-04-21T11:57:18.060Z,23.054210029094612
2023-04-21T12:01:17.068Z,23.236642585802837
2023-04-21T12:04:19.378Z,23.37089776498333
2023-04-21T12:07:22.054Z,23.44027372489154
2023-04-21T12:21:16.887Z,23.772379749153334
2023-04-21T12:24:17.120Z,23.91241708308553
2023-04-21T12:27:17.272Z,23.967018854417347
2023-04-21T12:31:17.973Z,24.00363417830231
2023-04-21T12:34:16.667Z,24.05566650608098
2023-04-21T12:37:17.094Z,24.023547781705656
2023-04-21T12:41:16.173Z,24.14559899481328
2023-04-21T12:44:16.640Z,24.27985551884085
2023-04-21T12:47:16.748Z,24.367218722499455
2023-04-21T12:51:16.765Z,24.265723243799584
2023-04-21T12:54:17.277Z,24.344735537049655
2023-04-21T12:57:17.158Z,24.41732412725687
2023-04-21T13:01:16.945Z,24.43916495337362
2023-04-21T13:04:16.929Z,24.545157272421875
2023-04-21T13:07:19.080Z,24.53809111396695
2023-04-21T13:11:15.890Z,24.518177397645285
2023-04-21T13:14:17.310Z,24.56571337287396
2023-04-21T13:17:16.651Z,24.6762024925848
2023-04-21T13:31:16.335Z,24.899108277299455
2023-04-21T13:34:16.230Z,24.926730646100715
2023-04-21T13:37:17.864Z,24.892684471806568
2023-04-21T13:41:16.515Z,24.93443921563894
2023-04-21T13:44:16.724Z,24.904247322021185
2023-04-21T13:47:16.764Z,24.890114949736745
2023-04-21T13:51:15.991Z,24.978763503191658
2023-04-21T13:54:16.563Z,24.99739255804534
2023-04-21T13:57:16.377Z,25.05713403561531
2023-04-21T14:01:16.100Z,25.082829306881468
2023-04-21T14:04:16.742Z,25.15156419328205
2023-04-21T14:07:18.670Z,25.15413372275516
2023-04-21T14:11:15.945Z,25.170835666103905
2023-04-21T14:14:24.176Z,25.192034290935045
2023-04-21T14:17:17.089Z,25.229934874944682
2023-04-21T14:21:16.514Z,25.28517982236308
2023-04-21T14:24:16.839Z,25.307020857363476
2023-04-21T14:27:16.886Z,25.350060559368284
2023-04-21T14:31:16.282Z,25.394385049933863
2023-04-21T14:34:16.487Z,25.41815326393735
2023-04-21T14:37:16.653Z,25.40273604333379
2023-04-21T14:41:16.137Z,25.486246019601822
2023-04-21T14:44:16.740Z,25.481106941920007
2023-04-21T14:47:16.750Z,25.5215771865428
2023-04-21T14:51:17.209Z,25.51579572192022
2023-04-21T14:54:16.976Z,25.524789111492282
2023-04-21T14:57:21.005Z,25.50551756350069
2023-04-21T15:01:16.521Z,25.45476917336864
2023-04-21T15:04:16.711Z,25.48303409601658
2023-04-21T15:07:19.830Z,25.508087102996434
2023-04-21T15:11:16.182Z,25.4945970214555
2023-04-21T15:14:16.582Z,25.53314011689299
2023-04-21T15:17:16.498Z,25.53185534678132
2023-04-21T15:21:15.714Z,25.443848637430712
2023-04-21T15:24:16.058Z,25.428431412461578
2023-04-21T15:27:16.655Z,25.33335858303217
2023-04-21T15:31:16.818Z,25.30445132356117
2023-04-21T15:34:16.378Z,25.215802451937726
2023-04-21T15:37:17.568Z,25.075120724737644
2023-04-21T15:41:16.392Z,24.901035419036
2023-04-21T15:44:16.553Z,24.819453121329207
2023-04-21T15:47:17.215Z,24.701255276811207
2023-04-21T15:51:17.504Z,24.5984746675942
2023-04-21T15:54:16.115Z,24.594620397013205
2023-04-21T15:57:16.128Z,24.529097822183758
2023-04-21T16:01:17.009Z,24.439807330691927
2023-04-21T16:04:17.150Z,24.38970191351991
2023-04-21T16:07:16.697Z,24.337669394201658
2023-04-21T16:11:15.728Z,24.28499452849246
2023-04-21T16:14:17.115Z,24.260584235239367
2023-04-21T16:17:16.176Z,24.260584235239367
2023-04-21T16:21:16.448Z,24.20790941427731
2023-04-21T16:24:16.898Z,24.168082130922993
2023-04-21T16:27:16.997Z,24.12504298953072
2023-04-21T16:31:16.248Z,24.06787162432447
2023-04-21T16:34:17.308Z,24.07750724514999
2023-04-21T16:37:16.670Z,24.043461389479127
2023-04-21T16:41:18.968Z,23.95738324532431
2023-04-21T16:44:16.352Z,23.92719167679179
2023-04-21T16:47:16.426Z,23.82826618219415
2023-04-21T16:51:16.130Z,23.6811628864034
2023-04-21T16:54:16.300Z,23.59058848665527
2023-04-21T16:57:16.631Z,23.441558465390063
2023-04-21T17:01:15.815Z,23.28289315141774
2023-04-21T17:04:16.510Z,23.202597045622042
2023-04-21T17:07:16.750Z,23.13450600358201
2023-04-21T17:11:15.928Z,23.13000942713261
2023-04-21T17:14:16.390Z,23.06577264504158
2023-04-21T17:17:16.774Z,22.98547673137664
2023-04-21T17:21:16.410Z,22.857645783423504
2023-04-21T17:24:16.942Z,22.770926398641404
2023-04-21T17:27:17.020Z,22.5628002133054
2023-04-21T17:31:16.687Z,22.3514626926044
2023-04-21T17:34:16.800Z,22.153615246982373
2023-04-21T17:37:16.851Z,22.05533404638127
2023-04-21T17:41:16.353Z,21.85363309228933
2023-04-21T17:44:16.692Z,21.70846007160808
2023-04-21T17:47:16.818Z,21.560717855401982
2023-04-21T17:51:16.311Z,21.350025024091245
2023-04-21T17:54:16.999Z,21.204210454732312
2023-04-21T17:57:16.744Z,21.068031420951957
2023-04-21T18:01:15.697Z,20.860551493529876
2023-04-21T18:04:17.240Z,20.739147050140673
2023-04-21T18:07:16.050Z,20.604253414669074
2023-04-21T18:11:16.142Z,20.4231108482174
2023-04-21T18:14:16.040Z,20.30170699012897
2023-04-21T18:17:17.555Z,20.20342779541388
2023-04-21T18:21:16.408Z,19.980533545684104
2023-04-21T18:24:16.493Z,19.908590849979465
2023-04-21T18:27:16.447Z,19.76020922024363
2023-04-21T18:31:16.335Z,19.581637710524955
2023-04-21T18:34:16.635Z,19.481432269084326
2023-04-21T18:37:16.611Z,19.34525582092465
2023-04-21T18:41:16.424Z,19.20843723685839
2023-04-21T18:44:17.004Z,19.125575377807035
2023-04-21T18:47:16.855Z,18.9932534962325
2023-04-21T18:51:16.563Z,18.89047935243143
2023-04-21T18:54:17.060Z,18.76715053353837
2023-04-21T18:57:16.869Z,18.672727019880494
2023-04-21T19:01:16.682Z,18.528843759453686
2023-04-21T19:04:16.534Z,18.429924150269017
2023-04-21T19:07:16.875Z,18.31494629850058
2023-04-21T19:11:16.191Z,18.198041593018935
2023-04-21T19:14:16.432Z,18.1267426432948
2023-04-21T19:17:16.406Z,18.007268853146616
2023-04-21T19:21:15.722Z,17.891649206022795
2023-04-21T19:24:16.278Z,17.830627784997706
2023-04-21T19:27:16.026Z,17.772175725448413
2023-04-21T19:31:19.137Z,17.65398706075148
2023-04-21T19:34:16.819Z,17.569199635267523
2023-04-21T19:37:16.724Z,17.517813355354974
2023-04-21T19:41:16.055Z,17.373289599136115
2023-04-21T19:44:16.554Z,17.312268526743082
2023-04-21T19:47:16.517Z,17.246108884098067
2023-04-21T19:51:16.239Z,17.17481068244242
2023-04-21T19:54:16.704Z,17.11957067283447
2023-04-21T19:57:16.576Z,17.024506548997397
2023-04-21T20:01:16.446Z,16.95513549446705
2023-04-21T20:04:16.925Z,16.90439188631717
2023-04-21T20:07:16.681Z,16.85300598293543
2023-04-21T20:11:16.408Z,16.744453357722612
2023-04-21T20:14:18.075Z,16.666090004859235
2023-04-21T20:17:16.664Z,16.63590086239019
2023-04-21T20:21:16.207Z,16.526706175635628
2023-04-21T20:24:17.408Z,16.474035844303216
2023-04-21T20:27:17.112Z,16.387322560548
2023-04-21T20:31:15.751Z,16.327586791062277
2023-04-21T20:34:16.143Z,16.257573950007735
2023-04-21T20:37:16.414Z,16.170860873139826
2023-04-21T20:41:15.700Z,16.14966435584438
2023-04-21T20:44:17.593Z,16.05588588420151
2023-04-21T20:47:16.739Z,15.99358106280015
2023-04-21T20:51:15.945Z,15.965961413392597
2023-04-21T20:54:16.251Z,15.844563519183794
2023-04-21T20:57:16.221Z,15.795105164410142
2023-04-21T21:01:16.223Z,15.735369784852082
2023-04-21T21:04:16.612Z,15.682699912923635
2023-04-21T21:07:16.358Z,15.630672386526658
2023-04-21T21:11:16.404Z,15.57671794622156
2023-04-21T21:14:16.800Z,15.466882220461049
2023-04-21T21:17:17.521Z,15.391731537346004
2023-04-21T21:21:16.061Z,15.312727040166283
2023-04-21T21:24:16.531Z,15.273545973589444
2023-04-21T21:27:16.279Z,15.22087636977094
2023-04-21T21:31:16.448Z,15.141872021375457
2023-04-21T21:34:16.845Z,15.079567827666414
2023-04-21T21:37:16.948Z,15.005702086434757
2023-04-21T21:41:18.672Z,14.922201755721835
2023-04-21T21:44:16.679Z,14.886874715863177
2023-04-21T21:47:17.635Z,14.804659112724858
2023-04-21T21:51:16.203Z,14.715378190577031
2023-04-21T21:54:16.728Z,14.665278143252726
2023-04-21T21:57:17.060Z,14.624170432778556
2023-04-21T22:01:18.196Z,14.561866594600087
2023-04-21T22:04:16.582Z,14.508555096932469
2023-04-21T22:07:16.336Z,14.45845516382251
2023-04-21T22:11:17.342Z,14.394224520820718
2023-04-21T22:14:23.359Z,14.39101298986434
2023-04-21T22:17:16.366Z,14.296594030551205
2023-04-21T22:21:15.742Z,14.229794281955401
2023-04-21T22:24:16.764Z,14.210525132847033
2023-04-21T22:27:16.281Z,14.132806272986727
2023-04-21T22:31:16.724Z,14.069860468345087
2023-04-21T22:34:18.575Z,14.058941302597304
2023-04-21T22:37:16.788Z,13.967091901565528
2023-04-21T22:41:16.231Z,13.908000028381593
2023-04-21T22:44:16.469Z,13.88038101389684
2023-04-21T22:47:16.405Z,13.81165466550965
2023-04-21T22:51:18.296Z,13.79238560521344
2023-04-21T22:54:16.817Z,13.772474247206992
2023-04-21T22:57:16.665Z,13.70952869257635
2023-04-21T23:01:16.972Z,13.662640705775356
2023-04-21T23:04:17.928Z,13.633737164341436
2023-04-21T23:07:16.999Z,13.601622129103998
2023-04-21T23:11:16.103Z,13.500138692477776
2023-04-21T23:14:16.447Z,13.500138692477776
2023-04-21T23:17:16.250Z,13.421135842552122
2023-04-21T23:21:16.420Z,13.369751912046286
2023-04-21T23:24:16.915Z,13.349840646799203
2023-04-21T23:27:16.847Z,13.328002489940264
2023-04-21T23:31:16.670Z,13.22459246560984
2023-04-21T23:34:16.954Z,13.18926608679467
2023-04-21T23:37:16.730Z,13.134670801137782
2023-04-21T23:41:16.469Z,13.071725689039976
2023-04-21T23:44:16.840Z,13.017772770574174
2023-04-21T23:47:16.865Z,12.969600549058304
2023-04-21T23:51:16.349Z,12.952258555574463
2023-04-21T23:54:16.907Z,12.961250699930043
2023-04-21T23:57:16.819Z,12.873898478201681
